Time;durP1;ratioP1;P1;durP2;ratioP2;P2;SDS_P1;SDS_P2;PMS_P1;PMS_P2;Temp;Humidity;BMP_temperature;BMP_pressure;BME280_temperature;BME280_humidity;BME280_pressure;Samples;Min_cycle;Max_cycle;Signal;HPM_P1;HPM_P2
2023/09/11 00:00:23;;;;;;;14.18;9.55;;;;;;;;;;5084252;28;20024;-82
2023/09/11 00:02:49;;;;;;;12.85;9.98;;;;;;;;;;5066027;28;20365;-82
2023/09/11 00:05:15;;;;;;;14.15;9.27;;;;;;;;;;5081621;28;20028;-80
2023/09/11 00:07:43;;;;;;;12.57;9.15;;;;;;;;;;5083948;28;20077;-81
2023/09/11 00:10:09;;;;;;;13.77;9.88;;;;;;;;;;5060200;28;20052;-80
2023/09/11 00:12:35;;;;;;;14.98;9.30;;;;;;;;;;5063224;28;20024;-81
2023/09/11 00:15:01;;;;;;;16.67;10.00;;;;;;;;;;5083668;28;20042;-82
2023/09/11 00:17:28;;;;;;;18.10;10.35;;;;;;;;;;5082382;28;20479;-79
2023/09/11 00:19:54;;;;;;;13.75;9.90;;;;;;;;;;5082811;28;21521;-82
2023/09/11 00:22:20;;;;;;;15.88;9.90;;;;;;;;;;5068703;28;20477;-82
2023/09/11 00:24:46;;;;;;;13.68;10.10;;;;;;;;;;5065153;28;20028;-79
2023/09/11 00:27:12;;;;;;;14.75;10.30;;;;;;;;;;5063511;28;20038;-82
2023/09/11 00:29:38;;;;;;;17.98;10.55;;;;;;;;;;5083145;28;20035;-82
2023/09/11 00:32:07;;;;;;;14.32;10.13;;;;;;;;;;5064657;28;20032;-80
2023/09/11 00:34:33;;;;;;;15.75;10.43;;;;;;;;;;5065308;28;20041;-83
2023/09/11 00:36:59;;;;;;;20.75;10.77;;;;;;;;;;5063461;28;20028;-82
2023/09/11 00:39:26;;;;;;;17.48;10.25;;;;;;;;;;5082208;28;20466;-80
2023/09/11 00:41:52;;;;;;;17.40;10.48;;;;;;;;;;5082243;28;20028;-83
2023/09/11 00:44:18;;;;;;;21.63;11.60;;;;;;;;;;5057978;28;20034;-82
2023/09/11 00:46:44;;;;;;;17.05;10.85;;;;;;;;;;5064239;28;20101;-80
2023/09/11 00:49:10;;;;;;;16.17;10.25;;;;;;;;;;5082859;28;20597;-82
2023/09/11 00:51:36;;;;;;;16.25;11.20;;;;;;;;;;5082574;28;20031;-78
2023/09/11 00:54:02;;;;;;;13.15;8.80;;;;;;;;;;5060377;28;20028;-80
2023/09/11 00:56:30;;;;;;;21.17;10.02;;;;;;;;;;5082357;28;20031;-82
2023/09/11 00:58:56;;;;;;;19.65;10.07;;;;;;;;;;5082750;28;20414;-80
2023/09/11 01:01:24;;;;;;;14.35;9.45;;;;;;;;;;5082195;28;20111;-82
2023/09/11 01:03:50;;;;;;;15.75;10.73;;;;;;;;;;5061564;28;20043;-82
2023/09/11 01:06:16;;;;;;;14.88;9.88;;;;;;;;;;5064627;28;20036;-80
2023/09/11 01:08:45;;;;;;;15.38;10.40;;;;;;;;;;5082175;28;20428;-78
2023/09/11 01:11:11;;;;;;;16.48;10.07;;;;;;;;;;5060444;28;20028;-79
2023/09/11 01:13:37;;;;;;;14.52;9.25;;;;;;;;;;5081971;28;20024;-83
2023/09/11 01:16:09;;;;;;;16.90;9.60;;;;;;;;;;5082404;28;20028;-81
2023/09/11 01:18:44;;;;;;;14.27;8.80;;;;;;;;;;5067377;28;20028;-81
2023/09/11 01:21:13;;;;;;;13.48;9.27;;;;;;;;;;5064306;28;20077;-83
2023/09/11 01:23:51;;;;;;;13.60;9.07;;;;;;;;;;5085419;28;20035;-77
2023/09/11 01:26:23;;;;;;;14.65;9.40;;;;;;;;;;5082234;28;20036;-83
2023/09/11 01:29:09;;;;;;;14.50;9.23;;;;;;;;;;5067708;28;20107;-82
2023/09/11 01:31:36;;;;;;;18.58;10.32;;;;;;;;;;5082285;28;20114;-81
2023/09/11 01:34:03;;;;;;;20.20;9.35;;;;;;;;;;5064723;28;20432;-82
2023/09/11 01:36:32;;;;;;;12.90;9.88;;;;;;;;;;5065491;28;20027;-83
2023/09/11 01:38:58;;;;;;;12.95;9.20;;;;;;;;;;5082643;28;20085;-81
2023/09/11 01:41:26;;;;;;;12.73;8.55;;;;;;;;;;5083048;28;20047;-80
2023/09/11 01:43:52;;;;;;;17.38;9.23;;;;;;;;;;5059829;28;20028;-80
2023/09/11 01:46:19;;;;;;;14.48;9.43;;;;;;;;;;5082249;28;20024;-83
2023/09/11 01:48:46;;;;;;;11.68;8.65;;;;;;;;;;5063599;28;20034;-83
2023/09/11 01:51:13;;;;;;;14.10;9.20;;;;;;;;;;5064351;28;20040;-83
2023/09/11 01:53:42;;;;;;;18.95;9.35;;;;;;;;;;5060758;28;20082;-82
2023/09/11 01:56:08;;;;;;;13.02;8.68;;;;;;;;;;5064949;28;20028;-82
2023/09/11 01:58:34;;;;;;;18.77;9.88;;;;;;;;;;5068918;28;20032;-79
2023/09/11 02:01:03;;;;;;;15.63;10.30;;;;;;;;;;5067928;28;20028;-83
2023/09/11 02:03:31;;;;;;;16.58;9.48;;;;;;;;;;5085409;28;20367;-79
2023/09/11 02:05:57;;;;;;;14.77;10.00;;;;;;;;;;5067943;28;20166;-83
2023/09/11 02:08:23;;;;;;;14.90;9.10;;;;;;;;;;5085442;28;20032;-79
2023/09/11 02:10:49;;;;;;;15.60;10.43;;;;;;;;;;5066002;28;20782;-82
2023/09/11 02:13:15;;;;;;;15.60;9.02;;;;;;;;;;5085463;28;20028;-82
2023/09/11 02:15:41;;;;;;;14.25;8.65;;;;;;;;;;5085181;28;20036;-79
2023/09/11 02:18:09;;;;;;;19.20;9.77;;;;;;;;;;5067964;28;20028;-81
2023/09/11 02:20:35;;;;;;;15.57;9.73;;;;;;;;;;5067735;28;20028;-80
2023/09/11 02:23:01;;;;;;;13.95;9.32;;;;;;;;;;5085199;28;20043;-83
2023/09/11 02:25:28;;;;;;;15.00;9.65;;;;;;;;;;5085297;28;20024;-81
2023/09/11 02:27:54;;;;;;;13.82;9.02;;;;;;;;;;5064860;28;20020;-81
2023/09/11 02:30:20;;;;;;;14.30;9.50;;;;;;;;;;5084943;28;20240;-81
2023/09/11 02:32:50;;;;;;;17.58;9.85;;;;;;;;;;5066018;28;20020;-78
2023/09/11 02:35:16;;;;;;;17.70;8.70;;;;;;;;;;5084977;28;20157;-83
2023/09/11 02:37:42;;;;;;;15.55;9.27;;;;;;;;;;5085312;28;20032;-82
2023/09/11 02:40:08;;;;;;;14.10;9.00;;;;;;;;;;5085775;28;21655;-83
2023/09/11 02:42:34;;;;;;;14.85;8.93;;;;;;;;;;5062951;28;20036;-80
2023/09/11 02:45:00;;;;;;;21.45;9.55;;;;;;;;;;5061004;28;20031;-81
2023/09/11 02:47:26;;;;;;;18.65;9.70;;;;;;;;;;5065762;28;20119;-84
2023/09/11 02:49:54;;;;;;;22.10;9.52;;;;;;;;;;5084975;28;20032;-80
2023/09/11 02:52:20;;;;;;;15.93;8.98;;;;;;;;;;5083860;28;20020;-83
2023/09/11 02:54:46;;;;;;;12.32;9.05;;;;;;;;;;5083725;28;20043;-81
2023/09/11 02:57:12;;;;;;;15.85;9.60;;;;;;;;;;5061385;28;20078;-82
2023/09/11 02:59:38;;;;;;;11.50;9.43;;;;;;;;;;5082433;28;20085;-80
2023/09/11 03:02:05;;;;;;;15.27;9.00;;;;;;;;;;5064007;28;20543;-78
2023/09/11 03:04:31;;;;;;;15.65;8.88;;;;;;;;;;5060972;28;20123;-84
2023/09/11 03:06:57;;;;;;;14.80;8.40;;;;;;;;;;5083131;28;20388;-83
2023/09/11 03:09:23;;;;;;;15.13;9.13;;;;;;;;;;5063499;28;20515;-79
2023/09/11 03:11:49;;;;;;;14.15;8.90;;;;;;;;;;5083984;28;20717;-83
2023/09/11 03:14:17;;;;;;;18.73;9.40;;;;;;;;;;5061035;28;20035;-80
2023/09/11 03:16:43;;;;;;;15.77;8.98;;;;;;;;;;5066868;28;20064;-84
2023/09/11 03:19:12;;;;;;;17.00;9.25;;;;;;;;;;5082077;28;20035;-78
2023/09/11 03:21:38;;;;;;;14.65;8.35;;;;;;;;;;5083481;28;20766;-83
2023/09/11 03:24:04;;;;;;;14.20;9.23;;;;;;;;;;5066493;28;20035;-83
2023/09/11 03:26:30;;;;;;;16.00;8.82;;;;;;;;;;5066421;28;20019;-80
2023/09/11 03:28:56;;;;;;;18.10;9.02;;;;;;;;;;5065023;28;20028;-84
2023/09/11 03:31:25;;;;;;;12.75;8.50;;;;;;;;;;5066832;28;20024;-83
2023/09/11 03:33:51;;;;;;;16.02;8.57;;;;;;;;;;5067187;28;20300;-81
2023/09/11 03:36:19;;;;;;;18.45;9.45;;;;;;;;;;5084491;28;20028;-83
2023/09/11 03:38:50;;;;;;;18.15;8.95;;;;;;;;;;5066554;28;20028;-83
2023/09/11 03:41:16;;;;;;;13.07;8.48;;;;;;;;;;5085668;28;20055;-82
2023/09/11 03:43:44;;;;;;;18.90;8.43;;;;;;;;;;5083153;28;20063;-83
2023/09/11 03:46:13;;;;;;;17.27;9.30;;;;;;;;;;5068999;28;20051;-81
2023/09/11 03:48:42;;;;;;;17.17;9.43;;;;;;;;;;5083720;28;20039;-83
2023/09/11 03:51:07;;;;;;;14.18;8.75;;;;;;;;;;5063529;28;20110;-78
2023/09/11 03:53:34;;;;;;;13.63;8.70;;;;;;;;;;5091221;28;20107;-81
2023/09/11 03:56:00;;;;;;;15.23;9.02;;;;;;;;;;5068371;28;20067;-84
2023/09/11 03:58:26;;;;;;;16.58;9.10;;;;;;;;;;5067787;28;20027;-84
2023/09/11 04:00:54;;;;;;;17.20;8.60;;;;;;;;;;5064617;28;20090;-82
2023/09/11 04:03:20;;;;;;;14.43;8.52;;;;;;;;;;5078410;28;20368;-79
2023/09/11 04:05:46;;;;;;;18.50;9.10;;;;;;;;;;5081912;28;20037;-81
2023/09/11 04:08:12;;;;;;;13.75;8.43;;;;;;;;;;5064902;28;20043;-82
2023/09/11 04:10:40;;;;;;;21.73;9.38;;;;;;;;;;5084451;28;20961;-79
2023/09/11 04:13:06;;;;;;;16.63;8.75;;;;;;;;;;5064632;28;20027;-84
2023/09/11 04:15:35;;;;;;;15.65;8.48;;;;;;;;;;5085533;28;20032;-81
2023/09/11 04:18:00;;;;;;;20.70;9.30;;;;;;;;;;5068101;28;20036;-82
2023/09/11 04:20:33;;;;;;;12.73;8.25;;;;;;;;;;5063170;28;20043;-80
2023/09/11 04:22:59;;;;;;;;;;;;;;;;;;5065082;28;20388;-80
2023/09/11 04:25:24;;;;;;;16.45;9.23;;;;;;;;;;5065990;28;19916;-84
2023/09/11 04:27:50;;;;;;;16.83;8.23;;;;;;;;;;5082423;28;20066;-83
2023/09/11 04:30:17;;;;;;;21.27;9.00;;;;;;;;;;5082651;28;20047;-84
2023/09/11 04:32:44;;;;;;;18.73;8.93;;;;;;;;;;5066191;28;20050;-83
2023/09/11 04:35:10;;;;;;;16.88;8.88;;;;;;;;;;5083192;28;20032;-84
2023/09/11 04:37:39;;;;;;;16.27;8.43;;;;;;;;;;5081379;28;20068;-81
2023/09/11 04:40:07;;;;;;;17.52;8.57;;;;;;;;;;5062954;28;20050;-84
2023/09/11 04:42:34;;;;;;;18.92;8.45;;;;;;;;;;5066416;28;20063;-79
2023/09/11 04:45:00;;;;;;;14.60;8.75;;;;;;;;;;5082902;28;20093;-79
2023/09/11 04:47:35;;;;;;;16.60;9.23;;;;;;;;;;5083352;28;20038;-83
2023/09/11 04:50:01;;;;;;;18.45;9.63;;;;;;;;;;5064454;28;20043;-81
2023/09/11 04:52:27;;;;;;;15.38;9.25;;;;;;;;;;5082028;28;20032;-82
2023/09/11 04:54:56;;;;;;;13.98;8.80;;;;;;;;;;5066033;28;20066;-85
2023/09/11 04:57:21;;;;;;;17.17;9.70;;;;;;;;;;5082356;28;20032;-82
2023/09/11 04:59:50;;;;;;;17.95;8.27;;;;;;;;;;5083718;28;20384;-84
2023/09/11 05:02:21;;;;;;;21.15;8.70;;;;;;;;;;5081510;28;20032;-80
2023/09/11 05:04:47;;;;;;;16.92;8.70;;;;;;;;;;5083014;28;20043;-82
2023/09/11 05:07:15;;;;;;;19.90;8.30;;;;;;;;;;5082026;28;20060;-80
2023/09/11 05:09:44;;;;;;;19.83;8.55;;;;;;;;;;5066085;28;20035;-84
2023/09/11 05:12:09;;;;;;;21.42;8.95;;;;;;;;;;5078064;28;20043;-81
2023/09/11 05:14:35;;;;;;;18.77;9.63;;;;;;;;;;5082077;28;20036;-82
2023/09/11 05:17:02;;;;;;;26.30;9.60;;;;;;;;;;5082625;28;20166;-79
2023/09/11 05:19:30;;;;;;;20.42;8.82;;;;;;;;;;5063389;28;20951;-79
2023/09/11 05:21:56;;;;;;;17.00;8.43;;;;;;;;;;5081751;28;20028;-81
2023/09/11 05:24:25;;;;;;;23.48;8.60;;;;;;;;;;5080972;28;20064;-80
2023/09/11 05:26:50;;;;;;;15.02;8.55;;;;;;;;;;5075545;28;20028;-83
2023/09/11 05:29:16;;;;;;;20.38;9.27;;;;;;;;;;5081779;28;20039;-83
2023/09/11 05:31:42;;;;;;;18.48;8.07;;;;;;;;;;5082542;28;20032;-81
2023/09/11 05:34:09;;;;;;;15.93;7.45;;;;;;;;;;5068754;28;20039;-78
2023/09/11 05:36:35;;;;;;;17.88;9.25;;;;;;;;;;5081645;28;20165;-82
2023/09/11 05:39:01;;;;;;;21.30;9.32;;;;;;;;;;5086168;28;20410;-83
2023/09/11 05:41:27;;;;;;;21.02;8.93;;;;;;;;;;5064413;28;20434;-78
2023/09/11 05:43:55;;;;;;;19.13;9.05;;;;;;;;;;5083677;28;20031;-81
2023/09/11 05:46:21;;;;;;;19.98;9.27;;;;;;;;;;5070390;28;20024;-80
2023/09/11 05:48:47;;;;;;;19.25;9.35;;;;;;;;;;5086429;28;20032;-82
2023/09/11 05:51:14;;;;;;;20.38;8.35;;;;;;;;;;5086696;28;20028;-84
2023/09/11 05:53:42;;;;;;;21.42;9.05;;;;;;;;;;5071030;28;20493;-82
2023/09/11 05:56:08;;;;;;;20.38;9.48;;;;;;;;;;5064495;28;20062;-84
2023/09/11 05:58:37;;;;;;;22.70;8.55;;;;;;;;;;5069054;28;20052;-84
2023/09/11 06:01:03;;;;;;;17.90;8.60;;;;;;;;;;5067008;28;20386;-80
2023/09/11 06:03:30;;;;;;;23.35;9.93;;;;;;;;;;5087835;28;20038;-82
2023/09/11 06:05:56;;;;;;;21.38;7.90;;;;;;;;;;5085183;28;20207;-84
2023/09/11 06:08:22;;;;;;;18.35;9.18;;;;;;;;;;5087266;28;20368;-84
2023/09/11 06:10:48;;;;;;;17.75;7.93;;;;;;;;;;5063639;28;20455;-83
2023/09/11 06:13:14;;;;;;;17.77;8.45;;;;;;;;;;5086951;28;20113;-84
2023/09/11 06:15:41;;;;;;;23.27;10.15;;;;;;;;;;5086311;28;20052;-80
2023/09/11 06:18:07;;;;;;;25.27;9.52;;;;;;;;;;5068536;28;20039;-78
2023/09/11 06:20:37;;;;;;;20.70;7.72;;;;;;;;;;5067952;28;20032;-82
2023/09/11 06:23:03;;;;;;;20.30;9.45;;;;;;;;;;5069267;28;20903;-83
2023/09/11 06:25:29;;;;;;;15.10;7.82;;;;;;;;;;5085670;28;20035;-80
2023/09/11 06:27:56;;;;;;;18.83;8.00;;;;;;;;;;5086022;28;20379;-83
2023/09/11 06:30:22;;;;;;;24.63;9.32;;;;;;;;;;5068374;28;20039;-79
2023/09/11 06:32:48;;;;;;;25.90;9.80;;;;;;;;;;5081951;28;20036;-80
2023/09/11 06:35:17;;;;;;;26.23;14.60;;;;;;;;;;5065891;28;20036;-83
2023/09/11 06:37:43;;;;;;;24.48;11.73;;;;;;;;;;5086074;28;20104;-82
2023/09/11 06:40:09;;;;;;;20.15;10.57;;;;;;;;;;5070966;28;20032;-82
2023/09/11 06:42:35;;;;;;;20.73;8.90;;;;;;;;;;5088691;28;20039;-84
2023/09/11 06:45:02;;;;;;;22.65;8.77;;;;;;;;;;5086298;28;20044;-83
2023/09/11 06:47:29;;;;;;;21.58;9.07;;;;;;;;;;5068225;28;20036;-82
2023/09/11 06:49:54;;;;;;;25.30;9.52;;;;;;;;;;5067576;28;21589;-84
2023/09/11 06:52:21;;;;;;;21.90;9.70;;;;;;;;;;5084781;28;20061;-82
2023/09/11 06:54:47;;;;;;;26.40;10.63;;;;;;;;;;5085230;28;20138;-82
2023/09/11 06:57:15;;;;;;;25.95;11.57;;;;;;;;;;5085290;28;20137;-85
2023/09/11 06:59:41;;;;;;;25.60;11.82;;;;;;;;;;5067838;28;20058;-81
2023/09/11 07:02:08;;;;;;;19.50;8.68;;;;;;;;;;5067818;28;20739;-85
2023/09/11 07:04:34;;;;;;;20.88;8.70;;;;;;;;;;5061368;28;20032;-86
2023/09/11 07:07:00;;;;;;;27.27;8.23;;;;;;;;;;5087332;28;20021;-80
2023/09/11 07:09:26;;;;;;;16.90;7.85;;;;;;;;;;5085309;28;20032;-86
2023/09/11 07:11:56;;;;;;;19.27;6.93;;;;;;;;;;5069715;28;20439;-86
2023/09/11 07:14:22;;;;;;;25.42;8.23;;;;;;;;;;5084680;28;20047;-86
2023/09/11 07:16:51;;;;;;;20.70;7.70;;;;;;;;;;5064582;28;20036;-80
2023/09/11 07:19:22;;;;;;;23.27;7.85;;;;;;;;;;5064933;28;20111;-85
2023/09/11 07:21:50;;;;;;;24.05;8.38;;;;;;;;;;5066899;28;20032;-80
2023/09/11 07:24:16;;;;;;;16.27;6.85;;;;;;;;;;5084268;28;20028;-85
2023/09/11 07:26:43;;;;;;;19.33;8.57;;;;;;;;;;5084553;28;20345;-84
2023/09/11 07:29:09;;;;;;;15.63;6.45;;;;;;;;;;5065548;28;20716;-83
2023/09/11 07:31:35;;;;;;;13.52;6.20;;;;;;;;;;5085763;28;20111;-85
2023/09/11 07:34:04;;;;;;;18.20;7.05;;;;;;;;;;5065605;28;20043;-82
2023/09/11 07:36:30;;;;;;;13.23;6.18;;;;;;;;;;5084108;28;20024;-86
2023/09/11 07:38:56;;;;;;;17.77;7.57;;;;;;;;;;5064888;28;20024;-85
2023/09/11 07:41:23;;;;;;;16.73;5.85;;;;;;;;;;5084304;28;20035;-82
2023/09/11 07:43:51;;;;;;;18.55;6.60;;;;;;;;;;5083648;28;20050;-84
2023/09/11 07:46:21;;;;;;;13.00;6.05;;;;;;;;;;5079200;28;20028;-83
2023/09/11 07:48:48;;;;;;;20.63;6.70;;;;;;;;;;5062526;28;20028;-85
2023/09/11 07:51:16;;;;;;;21.70;6.82;;;;;;;;;;5062248;28;20119;-81
2023/09/11 07:53:43;;;;;;;27.25;9.27;;;;;;;;;;5081625;28;20028;-85
2023/09/11 07:56:11;;;;;;;17.50;6.38;;;;;;;;;;5082271;28;20028;-83
2023/09/11 07:58:37;;;;;;;17.83;5.72;;;;;;;;;;5059048;28;20032;-83
2023/09/11 08:01:04;;;;;;;15.15;5.60;;;;;;;;;;5082144;28;20039;-84
2023/09/11 08:03:36;;;;;;;15.65;5.93;;;;;;;;;;5083396;28;20032;-83
2023/09/11 08:06:05;;;;;;;12.00;5.90;;;;;;;;;;5083610;28;20043;-81
2023/09/11 08:08:31;;;;;;;20.20;5.72;;;;;;;;;;5066511;28;20111;-83
2023/09/11 08:10:57;;;;;;;14.50;5.45;;;;;;;;;;5066648;28;20020;-86
2023/09/11 08:13:23;;;;;;;16.95;6.60;;;;;;;;;;5083685;28;20486;-82
2023/09/11 08:15:49;;;;;;;24.73;6.93;;;;;;;;;;5083299;28;20043;-86
2023/09/11 08:18:15;;;;;;;22.55;7.25;;;;;;;;;;5066808;28;20192;-84
2023/09/11 08:20:49;;;;;;;20.02;6.22;;;;;;;;;;5083859;28;20069;-81
2023/09/11 08:23:15;;;;;;;23.08;7.47;;;;;;;;;;5077837;28;20031;-79
2023/09/11 08:25:41;;;;;;;12.65;6.25;;;;;;;;;;5083866;28;20514;-81
2023/09/11 08:28:07;;;;;;;16.13;5.80;;;;;;;;;;5082914;28;20047;-84
2023/09/11 08:30:34;;;;;;;20.42;5.78;;;;;;;;;;5081518;28;20028;-81
2023/09/11 08:33:02;;;;;;;21.95;6.25;;;;;;;;;;5084242;28;20035;-80
2023/09/11 08:35:28;;;;;;;15.48;5.65;;;;;;;;;;5078436;28;20124;-83
2023/09/11 08:37:54;;;;;;;17.20;5.82;;;;;;;;;;5065264;28;20519;-81
2023/09/11 08:40:21;;;;;;;19.58;6.28;;;;;;;;;;5065642;28;20024;-86
2023/09/11 08:42:47;;;;;;;20.42;6.75;;;;;;;;;;5062821;28;20040;-84
2023/09/11 08:45:14;;;;;;;15.68;6.63;;;;;;;;;;5064171;28;20136;-81
2023/09/11 08:47:43;;;;;;;23.85;6.03;;;;;;;;;;5060701;28;20127;-80
2023/09/11 08:50:10;;;;;;;13.95;6.03;;;;;;;;;;5064260;28;20028;-84
2023/09/11 08:52:36;;;;;;;18.42;5.45;;;;;;;;;;5082899;28;20045;-85
2023/09/11 08:55:06;;;;;;;12.45;6.25;;;;;;;;;;5059443;28;20024;-84
2023/09/11 08:57:33;;;;;;;19.27;6.07;;;;;;;;;;5082395;28;20568;-81
2023/09/11 09:00:04;;;;;;;17.83;7.20;;;;;;;;;;5064470;28;20340;-83
2023/09/11 09:02:33;;;;;;;17.00;5.70;;;;;;;;;;5081870;28;20055;-84
2023/09/11 09:05:01;;;;;;;22.33;5.57;;;;;;;;;;5065006;28;20499;-79
2023/09/11 09:07:29;;;;;;;16.98;5.80;;;;;;;;;;5082189;28;20073;-85
2023/09/11 09:09:55;;;;;;;16.23;5.05;;;;;;;;;;5082597;28;20595;-84
2023/09/11 09:12:21;;;;;;;13.27;5.78;;;;;;;;;;5063911;28;20234;-84
2023/09/11 09:14:48;;;;;;;10.88;5.28;;;;;;;;;;5060063;28;20032;-84
2023/09/11 09:17:14;;;;;;;18.70;6.38;;;;;;;;;;5062673;28;20044;-81
2023/09/11 09:19:40;;;;;;;16.65;5.43;;;;;;;;;;5064894;28;20046;-83
2023/09/11 09:22:06;;;;;;;14.23;5.15;;;;;;;;;;5064906;28;20028;-84
2023/09/11 09:24:39;;;;;;;11.02;5.00;;;;;;;;;;5080694;28;20402;-81
2023/09/11 09:27:06;;;;;;;18.50;5.75;;;;;;;;;;5064138;28;20032;-80
2023/09/11 09:29:35;;;;;;;16.35;5.00;;;;;;;;;;5080952;28;20031;-82
2023/09/11 09:32:01;;;;;;;18.52;6.15;;;;;;;;;;5081703;28;20024;-79
2023/09/11 09:34:27;;;;;;;17.25;5.40;;;;;;;;;;5080164;28;20032;-77
2023/09/11 09:36:54;;;;;;;13.98;5.30;;;;;;;;;;5060622;28;20032;-79
2023/09/11 09:39:20;;;;;;;12.13;5.25;;;;;;;;;;5081208;28;20032;-80
2023/09/11 09:41:55;;;;;;;15.82;4.82;;;;;;;;;;5080432;28;20028;-79
2023/09/11 09:44:28;;;;;;;18.83;5.68;;;;;;;;;;5061612;28;20032;-78
2023/09/11 09:46:54;;;;;;;16.13;5.78;;;;;;;;;;5081532;28;20934;-78
2023/09/11 09:49:21;;;;;;;14.73;5.60;;;;;;;;;;5081277;28;20032;-80
2023/09/11 09:51:48;;;;;;;13.73;5.15;;;;;;;;;;5080800;28;20031;-80
2023/09/11 09:54:14;;;;;;;11.40;5.57;;;;;;;;;;5062779;28;20564;-79
2023/09/11 09:56:42;;;;;;;12.95;5.07;;;;;;;;;;5081444;28;20047;-76
2023/09/11 09:59:08;;;;;;;17.65;5.70;;;;;;;;;;5081535;28;21632;-78
2023/09/11 10:01:46;;;;;;;10.25;4.68;;;;;;;;;;5081071;28;20043;-77
2023/09/11 10:04:15;;;;;;;15.38;5.13;;;;;;;;;;5080389;28;20040;-80
2023/09/11 10:06:41;;;;;;;14.70;5.32;;;;;;;;;;5080986;28;20031;-79
2023/09/11 10:09:11;;;;;;;15.40;6.00;;;;;;;;;;5080229;28;20055;-78
2023/09/11 10:11:38;;;;;;;20.30;5.53;;;;;;;;;;5080268;28;20494;-78
2023/09/11 10:14:09;;;;;;;15.50;5.18;;;;;;;;;;5080945;28;20028;-78
2023/09/11 10:16:35;;;;;;;19.80;5.40;;;;;;;;;;5081454;28;20150;-75
2023/09/11 10:19:01;;;;;;;13.40;4.97;;;;;;;;;;5085509;28;21767;-80
2023/09/11 10:21:28;;;;;;;9.48;4.20;;;;;;;;;;5085526;28;20039;-79
2023/09/11 10:23:54;;;;;;;16.10;5.68;;;;;;;;;;5061042;28;20397;-78
2023/09/11 10:26:26;;;;;;;20.40;5.82;;;;;;;;;;5085341;28;20451;-76
2023/09/11 10:28:54;;;;;;;16.23;4.88;;;;;;;;;;5084396;28;20032;-80
2023/09/11 10:31:21;;;;;;;15.82;4.22;;;;;;;;;;5065076;28;20743;-77
2023/09/11 10:33:54;;;;;;;11.93;4.82;;;;;;;;;;5083847;28;20051;-77
2023/09/11 10:36:22;;;;;;;8.13;4.63;;;;;;;;;;5084930;28;20028;-77
2023/09/11 10:38:49;;;;;;;10.15;4.97;;;;;;;;;;5083193;28;20085;-78
2023/09/11 10:41:18;;;;;;;10.52;4.68;;;;;;;;;;5083248;28;20497;-78
2023/09/11 10:43:49;;;;;;;9.13;4.68;;;;;;;;;;5083400;28;20028;-78
2023/09/11 10:46:22;;;;;;;15.82;4.80;;;;;;;;;;5066308;28;20032;-78
2023/09/11 10:48:48;;;;;;;25.58;5.60;;;;;;;;;;5065880;28;20060;-78
2023/09/11 10:51:17;;;;;;;20.77;5.20;;;;;;;;;;5087914;28;20020;-77
2023/09/11 10:53:48;;;;;;;13.90;4.13;;;;;;;;;;5066604;28;20016;-78
2023/09/11 10:56:13;;;;;;;16.67;5.25;;;;;;;;;;5065784;28;20035;-79
2023/09/11 10:58:40;;;;;;;10.05;5.00;;;;;;;;;;5088780;28;20032;-78
2023/09/11 11:01:09;;;;;;;11.63;5.15;;;;;;;;;;5062583;28;20024;-78
2023/09/11 11:03:35;;;;;;;16.88;4.97;;;;;;;;;;5083355;28;20032;-79
2023/09/11 11:06:02;;;;;;;21.63;5.22;;;;;;;;;;5066861;28;20118;-79
2023/09/11 11:08:32;;;;;;;11.68;4.80;;;;;;;;;;5060426;28;20016;-78
2023/09/11 11:10:58;;;;;;;16.00;4.90;;;;;;;;;;5065456;28;20048;-77
2023/09/11 11:13:24;;;;;;;19.13;4.78;;;;;;;;;;5083236;28;20067;-77
2023/09/11 11:16:09;;;;;;;14.88;5.20;;;;;;;;;;5084454;28;20396;-80
2023/09/11 11:18:35;;;;;;;16.15;5.70;;;;;;;;;;5083938;28;20028;-78
2023/09/11 11:21:01;;;;;;;11.45;4.97;;;;;;;;;;5083539;28;20050;-77
2023/09/11 11:23:30;;;;;;;10.95;5.18;;;;;;;;;;5061137;28;20698;-77
2023/09/11 11:26:00;;;;;;;12.25;5.00;;;;;;;;;;5065631;28;20032;-79
2023/09/11 11:28:26;;;;;;;11.75;4.90;;;;;;;;;;5082759;28;20035;-80
2023/09/11 11:30:53;;;;;;;15.07;4.60;;;;;;;;;;5083169;28;20028;-79
2023/09/11 11:33:28;;;;;;;13.85;5.15;;;;;;;;;;5084082;28;20042;-79
2023/09/11 11:35:54;;;;;;;11.30;5.28;;;;;;;;;;5083332;28;20063;-79
2023/09/11 11:38:20;;;;;;;12.68;4.90;;;;;;;;;;5081921;28;20043;-78
2023/09/11 11:40:50;;;;;;;10.77;5.53;;;;;;;;;;5064680;28;20032;-79
2023/09/11 11:43:17;;;;;;;19.35;5.28;;;;;;;;;;5082881;28;20124;-79
2023/09/11 11:45:44;;;;;;;12.57;5.45;;;;;;;;;;5064542;28;21717;-79
2023/09/11 11:48:12;;;;;;;16.60;6.50;;;;;;;;;;5082912;28;20403;-76
2023/09/11 11:50:45;;;;;;;13.82;5.05;;;;;;;;;;5083248;28;20028;-79
2023/09/11 11:53:18;;;;;;;14.05;5.03;;;;;;;;;;5064471;28;20028;-78
2023/09/11 11:55:46;;;;;;;18.10;6.03;;;;;;;;;;5083414;28;20039;-78
2023/09/11 11:58:13;;;;;;;13.45;4.82;;;;;;;;;;5060134;28;20028;-79
2023/09/11 12:00:39;;;;;;;23.38;6.03;;;;;;;;;;5077693;28;20024;-78
2023/09/11 12:03:08;;;;;;;14.98;5.55;;;;;;;;;;5062171;28;20067;-78
2023/09/11 12:05:36;;;;;;;15.68;6.43;;;;;;;;;;5082355;28;20032;-80
2023/09/11 12:08:02;;;;;;;11.27;5.05;;;;;;;;;;5082242;28;20082;-79
2023/09/11 12:10:29;;;;;;;17.27;5.65;;;;;;;;;;5082550;28;20024;-79
2023/09/11 12:12:55;;;;;;;13.30;5.47;;;;;;;;;;5064148;28;20115;-78
2023/09/11 12:15:21;;;;;;;10.82;5.15;;;;;;;;;;5082501;28;20031;-76
2023/09/11 12:17:48;;;;;;;13.50;5.43;;;;;;;;;;5081899;28;20032;-80
2023/09/11 12:20:18;;;;;;;13.35;4.90;;;;;;;;;;5081941;28;20119;-78
2023/09/11 12:22:45;;;;;;;14.55;5.05;;;;;;;;;;5064057;28;20032;-80
2023/09/11 12:25:12;;;;;;;17.20;5.38;;;;;;;;;;5068581;28;20031;-79
2023/09/11 12:27:40;;;;;;;19.27;4.57;;;;;;;;;;5082807;28;20047;-78
2023/09/11 12:30:10;;;;;;;20.15;5.13;;;;;;;;;;5083057;28;20036;-79
2023/09/11 12:32:36;;;;;;;18.23;4.88;;;;;;;;;;5082878;28;20166;-76
2023/09/11 12:35:05;;;;;;;10.35;4.53;;;;;;;;;;5081323;28;20028;-79
2023/09/11 12:37:31;;;;;;;11.43;4.30;;;;;;;;;;5081402;28;20066;-79
2023/09/11 12:39:57;;;;;;;15.25;4.43;;;;;;;;;;5080880;28;20057;-79
2023/09/11 12:42:23;;;;;;;13.70;4.13;;;;;;;;;;5081857;28;20059;-79
2023/09/11 12:44:50;;;;;;;16.90;4.70;;;;;;;;;;5080973;28;20089;-78
2023/09/11 12:47:18;;;;;;;16.45;5.20;;;;;;;;;;5063889;28;20024;-79
2023/09/11 12:49:44;;;;;;;17.00;5.28;;;;;;;;;;5059837;28;20031;-77
2023/09/11 12:52:15;;;;;;;17.13;5.07;;;;;;;;;;5082873;28;20880;-77
2023/09/11 12:54:41;;;;;;;11.23;4.87;;;;;;;;;;5081217;28;20044;-77
2023/09/11 12:57:08;;;;;;;12.27;4.70;;;;;;;;;;5081971;28;20274;-79
2023/09/11 12:59:34;;;;;;;9.82;3.95;;;;;;;;;;5063614;28;20126;-78
2023/09/11 13:02:03;;;;;;;9.45;4.70;;;;;;;;;;5081590;28;20123;-76
2023/09/11 13:04:31;;;;;;;10.45;4.68;;;;;;;;;;5081072;28;20028;-78
2023/09/11 13:06:57;;;;;;;17.05;5.45;;;;;;;;;;5064024;28;20020;-79
2023/09/11 13:09:24;;;;;;;18.73;4.80;;;;;;;;;;5081501;28;20028;-78
2023/09/11 13:11:50;;;;;;;15.05;4.55;;;;;;;;;;5081752;28;20058;-78
2023/09/11 13:14:16;;;;;;;18.00;5.90;;;;;;;;;;5063451;28;20024;-79
2023/09/11 13:16:43;;;;;;;12.48;4.63;;;;;;;;;;5080821;28;20040;-78
2023/09/11 13:19:09;;;;;;;9.80;3.83;;;;;;;;;;5082143;28;20103;-79
2023/09/11 13:21:35;;;;;;;13.65;4.82;;;;;;;;;;5083510;28;20093;-79
2023/09/11 13:24:04;;;;;;;12.70;4.75;;;;;;;;;;5065901;28;20023;-79
2023/09/11 13:26:30;;;;;;;16.05;4.78;;;;;;;;;;5082501;28;20033;-77
2023/09/11 13:28:56;;;;;;;6.93;4.15;;;;;;;;;;5082480;28;20798;-79
2023/09/11 13:31:22;;;;;;;14.50;4.43;;;;;;;;;;5081016;28;20485;-78
2023/09/11 13:33:50;;;;;;;11.90;4.75;;;;;;;;;;5061648;28;20063;-77
2023/09/11 13:36:16;;;;;;;13.82;5.38;;;;;;;;;;5081287;28;20029;-79
2023/09/11 13:38:42;;;;;;;13.15;4.72;;;;;;;;;;5081170;28;20043;-78
2023/09/11 13:41:08;;;;;;;11.60;4.90;;;;;;;;;;5057201;28;20028;-80
2023/09/11 13:43:34;;;;;;;9.05;4.68;;;;;;;;;;5081911;28;20023;-77
2023/09/11 13:46:02;;;;;;;16.75;4.85;;;;;;;;;;5076560;28;20754;-78
2023/09/11 13:48:28;;;;;;;10.88;5.07;;;;;;;;;;5063902;28;20028;-77
2023/09/11 13:50:54;;;;;;;9.65;4.82;;;;;;;;;;5060222;28;20474;-77
2023/09/11 13:53:20;;;;;;;9.00;4.47;;;;;;;;;;5067001;28;20051;-79
2023/09/11 13:55:46;;;;;;;9.63;4.40;;;;;;;;;;5062101;28;20032;-79
2023/09/11 13:58:14;;;;;;;9.02;4.68;;;;;;;;;;5065853;28;20039;-79
2023/09/11 14:00:43;;;;;;;9.73;4.10;;;;;;;;;;5087864;28;20092;-76
2023/09/11 14:03:09;;;;;;;10.52;4.97;;;;;;;;;;5087364;28;20032;-79
2023/09/11 14:05:35;;;;;;;10.88;4.03;;;;;;;;;;5084747;28;20431;-78
2023/09/11 14:08:01;;;;;;;7.45;4.65;;;;;;;;;;5087442;28;20024;-79
2023/09/11 14:10:27;;;;;;;8.90;3.78;;;;;;;;;;5065812;28;20058;-79
2023/09/11 14:12:53;;;;;;;7.63;3.92;;;;;;;;;;5084330;28;20103;-79
2023/09/11 14:15:19;;;;;;;11.48;4.10;;;;;;;;;;5066836;28;20448;-79
2023/09/11 14:17:45;;;;;;;10.27;4.40;;;;;;;;;;5084049;28;20036;-79
2023/09/11 14:20:11;;;;;;;9.40;4.32;;;;;;;;;;5065593;28;20451;-77
2023/09/11 14:22:38;;;;;;;10.10;4.15;;;;;;;;;;5079883;28;20731;-79
2023/09/11 14:25:04;;;;;;;13.20;4.45;;;;;;;;;;5084935;28;20020;-78
2023/09/11 14:27:30;;;;;;;9.00;3.53;;;;;;;;;;5084889;28;20352;-79
2023/09/11 14:29:59;;;;;;;14.90;5.05;;;;;;;;;;5085093;28;20032;-79